createdAt,value
2022-11-09T00:00:41.138Z,1.77
2022-11-09T00:03:08.127Z,1.92
2022-11-09T00:05:34.866Z,1.60
2022-11-09T00:08:01.632Z,1.80
2022-11-09T00:10:28.372Z,1.80
2022-11-09T00:12:55.038Z,1.63
2022-11-09T00:15:24.710Z,1.75
2022-11-09T00:17:51.415Z,1.52
2022-11-09T00:20:18.048Z,1.95
2022-11-09T00:22:48.798Z,1.67
2022-11-09T00:25:15.927Z,1.40
2022-11-09T00:27:42.769Z,1.63
2022-11-09T00:30:12.796Z,1.63
2022-11-09T00:32:39.529Z,1.52
2022-11-09T00:35:07.158Z,1.77
2022-11-09T00:37:35.087Z,1.63
2022-11-09T00:40:02.146Z,1.80
2022-11-09T00:42:28.959Z,1.90
2022-11-09T00:44:55.636Z,1.60
2022-11-09T00:47:22.334Z,1.70
2022-11-09T00:49:49.192Z,1.60
2022-11-09T00:52:15.956Z,2.08
2022-11-09T00:54:42.797Z,1.48
2022-11-09T00:57:09.532Z,1.90
2022-11-09T00:59:36.309Z,1.52
2022-11-09T01:02:03.652Z,1.40
2022-11-09T01:04:30.334Z,2.05
2022-11-09T01:06:57.177Z,2.00
2022-11-09T01:09:23.926Z,1.90
2022-11-09T01:11:50.890Z,1.55
2022-11-09T01:14:20.831Z,1.90
2022-11-09T01:16:47.668Z,1.50
2022-11-09T01:19:14.632Z,1.70
2022-11-09T01:21:41.340Z,1.92
2022-11-09T01:24:09.125Z,1.58
2022-11-09T01:26:36.404Z,1.65
2022-11-09T01:29:03.115Z,1.75
2022-11-09T01:31:31.968Z,1.73
2022-11-09T01:34:01.945Z,1.73
2022-11-09T01:36:28.630Z,1.80
2022-11-09T01:38:56.582Z,1.88
2022-11-09T01:41:26.127Z,2.00
2022-11-09T01:44:06.698Z,1.65
2022-11-09T01:46:39.476Z,1.88
2022-11-09T01:49:12.021Z,1.55
2022-11-09T01:51:42.881Z,1.88
2022-11-09T01:54:17.932Z,1.80
2022-11-09T01:56:45.574Z,1.58
2022-11-09T01:59:16.103Z,1.90
2022-11-09T02:01:44.793Z,1.58
2022-11-09T02:04:16.993Z,1.55
2022-11-09T02:06:48.067Z,2.28
2022-11-09T02:09:18.870Z,1.70
2022-11-09T02:11:45.628Z,1.48
2022-11-09T02:14:13.377Z,1.73
2022-11-09T02:16:40.793Z,1.90
2022-11-09T02:19:07.466Z,1.90
2022-11-09T02:21:34.554Z,1.80
2022-11-09T02:24:01.607Z,1.75
2022-11-09T02:26:36.618Z,2.15
2022-11-09T02:29:05.692Z,1.60
2022-11-09T02:31:36.645Z,1.65
2022-11-09T02:34:07.626Z,1.65
2022-11-09T02:36:35.042Z,2.05
2022-11-09T02:39:04.363Z,2.08
2022-11-09T02:41:32.245Z,1.52
2022-11-09T02:44:00.580Z,1.88
2022-11-09T02:46:37.183Z,1.88
2022-11-09T02:49:04.657Z,1.77
2022-11-09T02:51:31.811Z,1.98
2022-11-09T02:53:58.604Z,2.10
2022-11-09T02:56:25.556Z,1.67
2022-11-09T02:58:52.281Z,1.50
2022-11-09T03:01:19.001Z,1.70
2022-11-09T03:03:45.841Z,1.60
2022-11-09T03:06:13.469Z,1.90
2022-11-09T03:08:43.368Z,1.77
2022-11-09T03:11:10.756Z,1.80
2022-11-09T03:13:37.645Z,1.75
2022-11-09T03:16:08.570Z,1.63
2022-11-09T03:18:38.598Z,2.00
2022-11-09T03:21:06.299Z,1.85
2022-11-09T03:23:33.676Z,1.60
2022-11-09T03:26:01.626Z,1.40
2022-11-09T03:28:29.027Z,1.75
2022-11-09T03:30:56.824Z,1.60
2022-11-09T03:33:23.839Z,1.65
2022-11-09T03:35:51.536Z,1.55
2022-11-09T03:38:19.308Z,2.08
2022-11-09T03:40:47.337Z,1.90
2022-11-09T03:43:14.544Z,1.50
2022-11-09T03:45:41.479Z,1.85
2022-11-09T03:48:08.185Z,1.52
2022-11-09T03:50:35.584Z,1.60
2022-11-09T03:53:02.591Z,1.50
2022-11-09T03:55:29.359Z,1.85
2022-11-09T03:57:56.043Z,1.55
2022-11-09T04:00:26.493Z,1.98
2022-11-09T04:02:53.324Z,1.80
2022-11-09T04:05:20.341Z,1.77
2022-11-09T04:07:48.879Z,1.80
2022-11-09T04:10:15.744Z,1.45
2022-11-09T04:12:42.604Z,1.75
2022-11-09T04:15:09.913Z,1.70
2022-11-09T04:17:36.602Z,1.63
2022-11-09T04:20:03.779Z,1.80
2022-11-09T04:22:30.595Z,1.85
2022-11-09T04:24:57.272Z,1.75
2022-11-09T04:27:24.198Z,1.83
2022-11-09T04:29:50.917Z,1.80
2022-11-09T04:32:17.698Z,1.60
2022-11-09T04:34:44.403Z,1.65
2022-11-09T04:37:11.079Z,1.70
2022-11-09T04:39:37.747Z,2.10
2022-11-09T04:42:05.332Z,1.80
2022-11-09T04:44:32.131Z,1.90
2022-11-09T04:46:58.847Z,2.10
2022-11-09T04:49:25.553Z,1.75
2022-11-09T04:51:52.232Z,1.63
2022-11-09T04:54:19.157Z,1.60
2022-11-09T04:56:45.876Z,2.17
2022-11-09T04:59:12.572Z,1.88
2022-11-09T05:01:39.253Z,1.80
2022-11-09T05:04:05.962Z,1.95
2022-11-09T05:06:32.816Z,1.80
2022-11-09T05:09:01.824Z,1.88
2022-11-09T05:11:28.955Z,1.70
2022-11-09T05:13:55.704Z,2.13
2022-11-09T05:16:24.074Z,1.80
2022-11-09T05:18:50.909Z,1.73
2022-11-09T05:21:18.090Z,2.05
2022-11-09T05:24:00.181Z,2.10
2022-11-09T05:26:28.432Z,1.73
2022-11-09T05:28:55.447Z,1.58
2022-11-09T05:31:22.122Z,1.90
2022-11-09T05:33:50.363Z,1.70
2022-11-09T05:36:18.118Z,1.88
2022-11-09T05:38:45.276Z,2.22
2022-11-09T05:41:11.984Z,1.90
2022-11-09T05:43:38.708Z,1.70
2022-11-09T05:46:06.896Z,2.22
2022-11-09T05:48:34.004Z,2.22
2022-11-09T05:51:06.149Z,2.17
2022-11-09T05:53:32.971Z,2.20
2022-11-09T05:56:07.982Z,2.55
2022-11-09T05:58:38.209Z,2.10
2022-11-09T06:01:10.332Z,1.98
2022-11-09T06:03:37.204Z,2.20
2022-11-09T06:06:08.652Z,2.60
2022-11-09T06:08:35.893Z,1.80
2022-11-09T06:11:06.468Z,1.95
2022-11-09T06:13:33.462Z,1.92
2022-11-09T06:16:02.244Z,1.80
2022-11-09T06:18:30.471Z,2.25
2022-11-09T06:20:59.561Z,2.20
2022-11-09T06:23:26.702Z,1.80
2022-11-09T06:25:56.879Z,2.03
2022-11-09T06:28:23.505Z,1.85
2022-11-09T06:30:50.236Z,1.88
2022-11-09T06:33:17.052Z,2.13
2022-11-09T06:35:43.974Z,1.80
2022-11-09T06:38:11.901Z,2.28
2022-11-09T06:40:39.423Z,1.83
2022-11-09T06:43:06.536Z,2.30
2022-11-09T06:45:33.646Z,2.15
2022-11-09T06:48:02.249Z,1.85
2022-11-09T06:50:31.028Z,2.22
2022-11-09T06:53:03.153Z,2.20
2022-11-09T06:55:30.839Z,2.00
2022-11-09T06:57:58.534Z,2.45
2022-11-09T07:00:27.050Z,2.33
2022-11-09T07:02:54.046Z,2.08
2022-11-09T07:05:21.003Z,2.20
2022-11-09T07:07:47.700Z,2.42
2022-11-09T07:10:15.087Z,2.45
2022-11-09T07:12:41.899Z,2.30
2022-11-09T07:15:09.302Z,2.75
2022-11-09T07:17:38.375Z,2.25
2022-11-09T07:20:08.525Z,2.65
2022-11-09T07:22:39.502Z,2.42
2022-11-09T07:25:07.598Z,2.63
2022-11-09T07:27:35.682Z,3.00
2022-11-09T07:30:02.516Z,3.15
2022-11-09T07:32:54.114Z,2.92
2022-11-09T07:35:16.453Z,2.70
2022-11-09T07:37:43.153Z,3.05
2022-11-09T07:40:10.297Z,3.13
2022-11-09T07:42:37.103Z,3.33
2022-11-09T07:45:04.267Z,2.78
2022-11-09T07:47:31.700Z,3.13
2022-11-09T07:49:58.416Z,3.05
2022-11-09T07:52:25.225Z,3.05
2022-11-09T07:54:52.466Z,2.63
2022-11-09T07:57:19.276Z,3.13
2022-11-09T07:59:46.136Z,2.65
2022-11-09T08:02:13.087Z,2.80
2022-11-09T08:04:39.960Z,2.90
2022-11-09T08:07:06.832Z,3.08
2022-11-09T08:09:33.872Z,2.88
2022-11-09T08:12:00.767Z,2.95
2022-11-09T08:14:46.138Z,2.88
2022-11-09T08:17:13.040Z,2.67
2022-11-09T08:19:39.755Z,3.05
2022-11-09T08:22:06.635Z,3.72
2022-11-09T08:24:33.946Z,2.50
2022-11-09T08:27:00.808Z,2.83
2022-11-09T08:29:27.581Z,3.05
2022-11-09T08:31:54.537Z,3.03
2022-11-09T08:34:21.343Z,3.00
2022-11-09T08:36:48.031Z,2.65
2022-11-09T08:39:14.774Z,3.05
2022-11-09T08:41:41.451Z,2.95
2022-11-09T08:44:08.157Z,2.60
2022-11-09T08:46:39.918Z,2.80
2022-11-09T08:49:07.895Z,2.90
2022-11-09T08:51:34.552Z,3.25
2022-11-09T08:54:01.332Z,2.60
2022-11-09T08:56:28.116Z,3.22
2022-11-09T08:58:55.014Z,2.92
2022-11-09T09:01:21.930Z,3.10
2022-11-09T09:03:48.887Z,2.83
2022-11-09T09:06:15.719Z,2.95
2022-11-09T09:08:42.470Z,3.15
2022-11-09T09:11:09.152Z,2.88
2022-11-09T09:13:39.114Z,3.72
2022-11-09T09:16:14.988Z,2.80
2022-11-09T09:18:41.682Z,2.80
2022-11-09T09:21:09.713Z,2.88
2022-11-09T09:23:36.520Z,2.90
2022-11-09T09:26:03.236Z,3.10
2022-11-09T09:28:30.007Z,3.00
2022-11-09T09:31:00.719Z,3.65
2022-11-09T09:33:28.064Z,2.55
2022-11-09T09:35:58.504Z,2.53
2022-11-09T09:38:26.472Z,2.80
2022-11-09T09:41:00.023Z,2.42
2022-11-09T09:43:43.241Z,2.47
2022-11-09T09:46:17.512Z,2.67
2022-11-09T09:48:52.107Z,2.83
2022-11-09T09:51:29.035Z,2.60
2022-11-09T09:54:13.470Z,2.80
2022-11-09T09:56:42.295Z,2.70
2022-11-09T09:59:22.062Z,2.53
2022-11-09T10:01:50.003Z,2.75
2022-11-09T10:04:19.550Z,2.63
2022-11-09T10:06:59.635Z,3.05
2022-11-09T10:09:36.623Z,3.03
2022-11-09T10:12:03.553Z,3.03
2022-11-09T10:14:57.991Z,2.60
2022-11-09T10:17:41.679Z,2.80
2022-11-09T10:20:19.521Z,2.80
2022-11-09T10:23:01.550Z,2.83
2022-11-09T10:26:02.918Z,2.88
2022-11-09T10:28:17.490Z,2.50
2022-11-09T10:30:44.986Z,3.10
2022-11-09T10:33:11.664Z,2.67
2022-11-09T10:35:45.235Z,2.67
2022-11-09T10:38:31.796Z,2.33
2022-11-09T10:41:24.464Z,2.70
2022-11-09T10:44:17.343Z,2.65
2022-11-09T10:47:04.616Z,2.35
2022-11-09T10:50:27.095Z,2.20
2022-11-09T10:53:19.308Z,2.17
2022-11-09T10:56:04.543Z,2.28
2022-11-09T10:58:50.494Z,1.88
2022-11-09T11:01:38.720Z,2.28
2022-11-09T11:04:25.747Z,1.90
2022-11-09T11:07:19.732Z,2.15
2022-11-09T11:10:16.487Z,2.35
2022-11-09T11:13:01.898Z,1.98
2022-11-09T11:15:47.608Z,1.80
2022-11-09T11:18:34.510Z,2.00
2022-11-09T11:21:22.258Z,2.10
2022-11-09T11:24:17.731Z,1.92
2022-11-09T11:27:24.580Z,1.83
2022-11-09T11:30:48.261Z,1.77
2022-11-09T11:33:34.734Z,2.28
2022-11-09T11:36:31.963Z,1.83
2022-11-09T11:39:23.549Z,1.80
2022-11-09T11:42:11.697Z,1.50
2022-11-09T11:45:39.031Z,2.22
2022-11-09T11:48:46.733Z,2.15
2022-11-09T11:51:59.637Z,1.40
2022-11-09T11:55:06.661Z,1.70
2022-11-09T11:58:09.867Z,1.55
2022-11-09T12:01:17.141Z,1.52
2022-11-09T12:04:21.682Z,1.35
2022-11-09T12:07:19.150Z,1.33
2022-11-09T12:10:28.672Z,1.50
2022-11-09T12:13:32.136Z,1.38
2022-11-09T12:16:27.398Z,1.50
2022-11-09T12:19:19.632Z,1.50
2022-11-09T12:22:09.043Z,1.35
2022-11-09T12:24:57.622Z,1.77
2022-11-09T12:27:48.833Z,1.20
2022-11-09T12:31:04.786Z,1.25
2022-11-09T12:34:27.899Z,1.58
2022-11-09T12:37:15.653Z,1.65
2022-11-09T12:40:07.757Z,1.17
2022-11-09T12:43:10.932Z,1.40
2022-11-09T12:45:57.797Z,1.20
2022-11-09T12:48:43.556Z,1.30
2022-11-09T12:51:29.224Z,1.20
2022-11-09T12:54:14.792Z,1.13
2022-11-09T12:57:05.140Z,1.00
2022-11-09T12:59:55.454Z,1.27
2022-11-09T13:02:56.623Z,1.45
2022-11-09T13:05:43.255Z,0.93
2022-11-09T13:08:30.604Z,1.20
2022-11-09T13:11:40.667Z,1.20
2022-11-09T13:14:30.481Z,1.10
2022-11-09T13:17:24.994Z,1.20
2022-11-09T13:21:01.248Z,1.30
2022-11-09T13:26:46.254Z,1.02
2022-11-09T13:29:40.857Z,1.20
2022-11-09T13:32:28.542Z,1.20
2022-11-09T13:35:42.643Z,1.20
2022-11-09T13:38:32.494Z,1.10
2022-11-09T13:41:31.344Z,1.10
2022-11-09T13:44:27.287Z,1.25
2022-11-09T13:47:36.031Z,1.20
2022-11-09T13:50:24.038Z,1.23
2022-11-09T13:53:38.872Z,1.33
2022-11-09T13:56:33.405Z,1.17
2022-11-09T13:59:24.163Z,1.17
2022-11-09T14:02:19.611Z,1.38
2022-11-09T14:05:05.028Z,1.25
2022-11-09T14:07:50.431Z,0.82
2022-11-09T14:10:46.948Z,1.13
2022-11-09T14:14:00.469Z,1.00
2022-11-09T14:17:00.879Z,1.17
2022-11-09T14:20:05.866Z,1.02
2022-11-09T14:22:54.369Z,1.10
2022-11-09T14:25:39.662Z,1.10
2022-11-09T14:28:28.667Z,1.13
2022-11-09T14:31:23.384Z,1.00
2022-11-09T14:34:16.124Z,1.45
2022-11-09T14:37:04.870Z,1.17
2022-11-09T14:39:53.259Z,1.00
2022-11-09T14:42:44.951Z,1.00
2022-11-09T14:45:31.440Z,1.17
2022-11-09T14:48:21.968Z,1.10
2022-11-09T14:51:08.286Z,1.10
2022-11-09T14:53:53.987Z,1.33
2022-11-09T14:56:40.223Z,1.45
2022-11-09T14:59:31.851Z,1.15
2022-11-09T15:02:21.701Z,1.20
2022-11-09T15:05:07.648Z,1.30
2022-11-09T15:07:53.091Z,1.30
2022-11-09T15:10:39.108Z,1.10
2022-11-09T15:13:43.018Z,1.40
2022-11-09T15:16:29.809Z,1.50
2022-11-09T15:19:24.907Z,1.30
2022-11-09T15:22:35.145Z,1.30
2022-11-09T15:25:44.793Z,1.58
2022-11-09T15:28:35.846Z,1.38
2022-11-09T15:31:22.864Z,1.50
2022-11-09T15:34:22.114Z,1.40
2022-11-09T15:37:29.741Z,1.80
2022-11-09T15:40:21.722Z,1.52
2022-11-09T15:43:07.249Z,1.98
2022-11-09T15:45:52.586Z,1.73
2022-11-09T15:48:40.996Z,1.80
2022-11-09T15:51:30.100Z,1.30
2022-11-09T15:54:15.507Z,2.95
2022-11-09T15:57:00.674Z,1.85
2022-11-09T15:59:47.453Z,1.70
2022-11-09T16:02:32.797Z,1.70
2022-11-09T16:05:19.852Z,2.03
2022-11-09T16:08:08.654Z,2.17
2022-11-09T16:10:53.912Z,2.15
2022-11-09T16:13:39.495Z,2.40
2022-11-09T16:16:24.909Z,2.47
2022-11-09T16:19:13.496Z,2.33
2022-11-09T16:22:01.422Z,2.58
2022-11-09T16:24:48.392Z,2.83
2022-11-09T16:27:50.995Z,3.05
2022-11-09T16:30:37.024Z,2.85
2022-11-09T16:33:22.488Z,3.75
2022-11-09T16:36:16.644Z,3.65
2022-11-09T16:39:06.328Z,3.70
2022-11-09T16:41:52.147Z,3.97
2022-11-09T16:44:40.477Z,3.55
2022-11-09T16:47:25.735Z,3.50
2022-11-09T16:50:12.477Z,3.65
2022-11-09T16:52:58.163Z,3.00
2022-11-09T16:55:43.464Z,3.20
2022-11-09T16:58:29.018Z,3.05
2022-11-09T17:01:19.032Z,3.47
2022-11-09T17:04:07.925Z,3.28
2022-11-09T17:06:55.364Z,3.03
2022-11-09T17:09:42.637Z,2.80
2022-11-09T17:12:30.528Z,3.38
2022-11-09T17:15:17.279Z,2.70
2022-11-09T17:18:02.746Z,3.00
2022-11-09T17:20:49.871Z,2.45
2022-11-09T17:23:35.053Z,2.40
2022-11-09T17:26:21.600Z,2.60
2022-11-09T17:29:07.028Z,2.80
2022-11-09T17:31:53.846Z,2.70
2022-11-09T17:34:39.492Z,2.50
2022-11-09T17:37:25.143Z,2.40
2022-11-09T17:40:10.626Z,3.03
2022-11-09T17:42:57.191Z,2.60
2022-11-09T17:45:42.316Z,2.45
2022-11-09T17:48:27.694Z,2.28
2022-11-09T17:51:14.279Z,2.35
2022-11-09T17:53:59.707Z,2.25
2022-11-09T17:56:45.232Z,2.88
2022-11-09T17:59:30.660Z,2.35
2022-11-09T18:02:15.939Z,2.10
2022-11-09T18:05:01.806Z,2.47
2022-11-09T18:07:46.998Z,2.03
2022-11-09T18:10:32.644Z,2.10
2022-11-09T18:13:22.673Z,2.42
2022-11-09T18:16:17.523Z,2.35
2022-11-09T18:19:08.204Z,2.20
2022-11-09T18:21:53.642Z,2.35
2022-11-09T18:24:39.898Z,2.20
2022-11-09T18:27:30.339Z,2.22
2022-11-09T18:30:17.507Z,2.10
2022-11-09T18:33:02.832Z,2.13
2022-11-09T18:35:59.480Z,1.92
2022-11-09T18:38:45.251Z,2.10
2022-11-09T18:41:30.629Z,2.10
2022-11-09T18:44:15.986Z,1.80
2022-11-09T18:47:05.259Z,2.10
2022-11-09T18:49:51.055Z,2.13
2022-11-09T18:52:37.016Z,2.00
2022-11-09T18:55:22.466Z,2.42
2022-11-09T18:58:07.881Z,2.28
2022-11-09T19:01:05.725Z,3.13
2022-11-09T19:03:55.000Z,3.80
2022-11-09T19:06:43.515Z,3.35
2022-11-09T19:09:29.662Z,3.50
2022-11-09T19:12:15.096Z,4.05
2022-11-09T19:15:00.553Z,3.70
2022-11-09T19:17:46.073Z,3.78
2022-11-09T19:20:31.983Z,3.65
2022-11-09T19:23:17.183Z,4.28
2022-11-09T19:26:02.514Z,4.25
2022-11-09T19:28:47.833Z,4.50
2022-11-09T19:31:33.525Z,5.07
2022-11-09T19:34:20.606Z,5.45
2022-11-09T19:37:06.116Z,5.13
2022-11-09T19:39:51.478Z,4.95
2022-11-09T19:42:36.718Z,4.72
2022-11-09T19:45:22.239Z,4.90
2022-11-09T19:48:07.617Z,4.57
2022-11-09T19:50:53.185Z,5.47
2022-11-09T19:53:42.386Z,4.85
2022-11-09T19:56:29.715Z,4.97
2022-11-09T19:59:16.269Z,5.15
2022-11-09T20:02:01.822Z,5.45
2022-11-09T20:04:48.551Z,5.80
2022-11-09T20:07:34.177Z,5.68
2022-11-09T20:10:20.787Z,5.70
2022-11-09T20:13:06.446Z,5.47
2022-11-09T20:15:51.750Z,5.80
2022-11-09T20:18:38.469Z,5.50
2022-11-09T20:21:24.117Z,5.60
2022-11-09T20:24:12.184Z,5.93
2022-11-09T20:26:57.609Z,7.10
2022-11-09T20:29:42.860Z,6.95
2022-11-09T20:32:28.169Z,6.75
2022-11-09T20:35:13.572Z,6.82
2022-11-09T20:37:58.904Z,6.35
2022-11-09T20:40:44.616Z,6.18
2022-11-09T20:43:30.495Z,6.25
2022-11-09T20:46:22.359Z,5.25
2022-11-09T20:49:07.374Z,5.72
2022-11-09T20:51:52.571Z,5.40
2022-11-09T20:54:37.948Z,5.47
2022-11-09T20:57:23.286Z,4.82
2022-11-09T21:00:10.055Z,5.68
2022-11-09T21:02:55.290Z,4.80
2022-11-09T21:05:40.490Z,5.22
2022-11-09T21:08:26.092Z,4.47
2022-11-09T21:11:13.189Z,4.65
2022-11-09T21:13:58.435Z,4.35
2022-11-09T21:16:43.718Z,4.20
2022-11-09T21:19:29.084Z,3.83
2022-11-09T21:22:14.305Z,3.30
2022-11-09T21:25:18.279Z,3.75
2022-11-09T21:28:22.705Z,2.92
2022-11-09T21:31:10.534Z,2.45
2022-11-09T21:33:55.789Z,2.92
2022-11-09T21:36:44.612Z,2.80
2022-11-09T21:39:30.007Z,2.30
2022-11-09T21:42:15.546Z,2.50
2022-11-09T21:45:00.794Z,2.05
2022-11-09T21:47:46.314Z,1.83
2022-11-09T21:50:31.663Z,2.25
2022-11-09T21:53:17.083Z,2.20
2022-11-09T21:56:02.324Z,2.22
2022-11-09T21:58:48.418Z,2.13
2022-11-09T22:01:34.441Z,2.05
2022-11-09T22:04:20.002Z,2.05
2022-11-09T22:07:05.416Z,1.98
2022-11-09T22:10:09.487Z,2.10
2022-11-09T22:13:15.091Z,2.30
2022-11-09T22:16:06.915Z,2.05
2022-11-09T22:19:10.769Z,1.70
2022-11-09T22:21:56.556Z,2.10
2022-11-09T22:24:42.239Z,2.10
2022-11-09T22:27:30.215Z,2.03
2022-11-09T22:30:21.237Z,1.80
2022-11-09T22:33:11.994Z,1.80
2022-11-09T22:36:05.149Z,1.75
2022-11-09T22:39:04.758Z,1.60
2022-11-09T22:41:53.214Z,1.67
2022-11-09T22:44:39.102Z,1.63
2022-11-09T22:47:27.663Z,1.75
2022-11-09T22:50:17.020Z,1.80
2022-11-09T22:53:06.606Z,1.40
2022-11-09T22:55:55.818Z,1.10
2022-11-09T22:58:48.428Z,1.40
2022-11-09T23:01:34.325Z,1.40
2022-11-09T23:04:19.541Z,1.17
2022-11-09T23:07:05.004Z,1.60
2022-11-09T23:09:50.244Z,1.30
2022-11-09T23:12:35.683Z,1.23
2022-11-09T23:15:20.861Z,1.00
2022-11-09T23:18:24.637Z,1.23
2022-11-09T23:21:10.903Z,1.00
2022-11-09T23:23:59.040Z,1.05
2022-11-09T23:26:44.644Z,1.33
2022-11-09T23:29:29.834Z,1.10
2022-11-09T23:32:15.398Z,0.90
2022-11-09T23:35:00.480Z,0.90
2022-11-09T23:37:45.779Z,1.05
2022-11-09T23:40:32.721Z,1.10
2022-11-09T23:43:21.180Z,1.48
2022-11-09T23:46:09.017Z,0.90
2022-11-09T23:48:54.420Z,1.45
2022-11-09T23:51:39.581Z,1.00
2022-11-09T23:54:25.345Z,1.17
2022-11-09T23:57:10.643Z,1.10
2022-11-09T23:59:55.841Z,1.00
